Time,TemperatureF,DewpointF,PressureIn,WindDirection,WindDirectionDegrees,WindSpeedMPH,WindSpeedGustMPH,Humidity,HourlyPrecipIn,Conditions,Clouds,dailyrainin,SoftwareType,DateUTC
2013-02-26 00:05:00,-999.9,-99.9,29.83,North,32767,-999.0,0.0,255,-99.99,,,0.00,Wunderground v.1.15,2013-02-26 06:05:00,
2013-02-26 00:07:00,-999.9,-99.9,29.83,North,32767,-999.0,0.0,255,-99.99,,,0.00,Wunderground v.1.15,2013-02-26 06:07:00,
2013-02-26 00:09:00,-999.9,-99.9,29.83,North,32767,-999.0,0.0,255,-99.99,,,0.00,Wunderground v.1.15,2013-02-26 06:09:00,
2013-02-26 00:13:00,-999.9,-99.9,29.83,North,32767,-999.0,0.0,255,-99.99,,,0.00,Wunderground v.1.15,2013-02-26 06:13:00,
2013-02-26 00:15:00,-999.9,-99.9,29.83,North,32767,-999.0,0.0,255,-99.99,,,0.00,Wunderground v.1.15,2013-02-26 06:15:00,
2013-02-26 00:19:00,-999.9,-99.9,29.83,North,32767,-999.0,0.0,255,-99.99,,,0.00,Wunderground v.1.15,2013-02-26 06:19:00,
2013-02-26 00:21:00,-999.9,-99.9,29.83,North,32767,-999.0,0.0,255,-99.99,,,0.00,Wunderground v.1.15,2013-02-26 06:21:00,
2013-02-26 00:25:00,-999.9,-99.9,29.81,North,32767,-999.0,0.0,255,-99.99,,,0.00,Wunderground v.1.15,2013-02-26 06:25:00,
2013-02-26 00:27:00,-999.9,-99.9,29.81,North,32767,-999.0,0.0,255,-99.99,,,0.00,Wunderground v.1.15,2013-02-26 06:27:00,
2013-02-26 00:29:00,-999.9,-99.9,29.81,NNE,25,13.0,13.0,255,-99.99,,,0.00,Wunderground v.1.15,2013-02-26 06:29:00,
2013-02-26 00:35:00,-999.9,-99.9,29.81,NNE,25,13.0,13.0,255,-99.99,,,0.00,Wunderground v.1.15,2013-02-26 06:35:00,
2013-02-26 00:37:00,-999.9,-99.9,29.81,NNE,25,13.0,13.0,255,-99.99,,,0.00,Wunderground v.1.15,2013-02-26 06:37:00,
2013-02-26 00:39:00,-999.9,-99.9,29.82,NE,48,5.0,13.0,255,-99.99,,,0.00,Wunderground v.1.15,2013-02-26 06:39:00,
2013-02-26 00:43:00,-999.9,-99.9,29.82,NE,48,5.0,5.0,255,-99.99,,,0.00,Wunderground v.1.15,2013-02-26 06:43:00,
2013-02-26 00:45:00,-999.9,-99.9,29.82,NE,48,5.0,5.0,255,-99.99,,,0.00,Wunderground v.1.15,2013-02-26 06:45:00,
2013-02-26 00:47:00,-999.9,-99.9,29.82,NE,48,5.0,5.0,255,-99.99,,,0.00,Wunderground v.1.15,2013-02-26 06:47:00,
2013-02-26 00:51:00,-999.9,-99.9,29.82,North,32767,-999.0,0.0,255,-99.99,,,0.00,Wunderground v.1.15,2013-02-26 06:51:00,
2013-02-26 00:53:00,-999.9,-99.9,29.82,North,32767,-999.0,0.0,255,-99.99,,,0.00,Wunderground v.1.15,2013-02-26 06:53:00,
2013-02-26 00:59:00,-999.9,-99.9,29.82,North,32767,-999.0,0.0,255,-99.99,,,0.00,Wunderground v.1.15,2013-02-26 06:59:00,
2013-02-26 01:01:00,-999.9,-99.9,29.82,North,32767,-999.0,0.0,255,-99.99,,,0.00,Wunderground v.1.15,2013-02-26 07:01:00,
2013-02-26 01:03:00,-999.9,-99.9,29.82,North,32767,-999.0,0.0,255,-99.99,,,0.00,Wunderground v.1.15,2013-02-26 07:03:00,
2013-02-26 01:05:00,-999.9,-99.9,29.82,North,32767,-999.0,0.0,255,-99.99,,,0.00,Wunderground v.1.15,2013-02-26 07:05:00,
2013-02-26 01:09:00,-999.9,-99.9,29.80,North,32767,-999.0,0.0,255,-99.99,,,0.00,Wunderground v.1.15,2013-02-26 07:09:00,
2013-02-26 01:11:00,-999.9,-99.9,29.80,North,32767,-999.0,0.0,255,-99.99,,,0.00,Wunderground v.1.15,2013-02-26 07:11:00,
2013-02-26 01:15:00,-999.9,-99.9,29.80,North,32767,-999.0,0.0,255,-99.99,,,0.00,Wunderground v.1.15,2013-02-26 07:15:00,
2013-02-26 01:17:00,-999.9,-99.9,29.80,North,32767,-999.0,0.0,255,-99.99,,,0.00,Wunderground v.1.15,2013-02-26 07:17:00,
2013-02-26 01:21:00,-999.9,-99.9,29.80,North,32767,-999.0,0.0,255,-99.99,,,0.00,Wunderground v.1.15,2013-02-26 07:21:00,
2013-02-26 01:25:00,-999.9,-99.9,29.78,North,32767,-999.0,0.0,255,-99.99,,,0.00,Wunderground v.1.15,2013-02-26 07:25:00,
2013-02-26 01:27:00,-999.9,-99.9,29.78,North,32767,-999.0,0.0,255,-99.99,,,0.00,Wunderground v.1.15,2013-02-26 07:27:00,
2013-02-26 01:29:00,-999.9,-99.9,29.78,North,32767,-999.0,0.0,255,-99.99,,,0.00,Wunderground v.1.15,2013-02-26 07:29:00,
2013-02-26 01:31:00,-999.9,-99.9,29.78,North,32767,-999.0,0.0,255,-99.99,,,0.00,Wunderground v.1.15,2013-02-26 07:31:00,
2013-02-26 01:33:00,-999.9,-99.9,29.78,North,32767,-999.0,0.0,255,-99.99,,,0.00,Wunderground v.1.15,2013-02-26 07:33:00,
2013-02-26 01:35:00,-999.9,-99.9,29.78,North,32767,-999.0,0.0,255,-99.99,,,0.00,Wunderground v.1.15,2013-02-26 07:35:00,
2013-02-26 01:41:00,-999.9,-99.9,29.78,North,32767,-999.0,0.0,255,-99.99,,,0.00,Wunderground v.1.15,2013-02-26 07:41:00,
2013-02-26 01:45:00,-999.9,-99.9,29.78,North,32767,-999.0,0.0,255,-99.99,,,0.00,Wunderground v.1.15,2013-02-26 07:45:00,
2013-02-26 01:47:00,-999.9,-99.9,29.78,North,32767,-999.0,0.0,255,-99.99,,,0.00,Wunderground v.1.15,2013-02-26 07:47:00,
2013-02-26 01:51:00,-999.9,-99.9,29.78,North,32767,-999.0,0.0,255,-99.99,,,0.00,Wunderground v.1.15,2013-02-26 07:51:00,
2013-02-26 01:53:00,-999.9,-99.9,29.77,North,32767,-999.0,0.0,255,-99.99,,,0.00,Wunderground v.1.15,2013-02-26 07:53:00,
2013-02-26 01:57:00,-999.9,-99.9,29.77,North,32767,-999.0,0.0,255,-99.99,,,0.00,Wunderground v.1.15,2013-02-26 07:57:00,
2013-02-26 01:59:00,-999.9,-99.9,29.77,North,32767,-999.0,0.0,255,-99.99,,,0.00,Wunderground v.1.15,2013-02-26 07:59:00,
2013-02-26 02:01:00,-999.9,-99.9,29.77,North,32767,-999.0,0.0,255,-99.99,,,0.00,Wunderground v.1.15,2013-02-26 08:01:00,
2013-02-26 02:07:00,-999.9,-99.9,29.77,North,32767,-999.0,0.0,255,-99.99,,,0.00,Wunderground v.1.15,2013-02-26 08:07:00,
2013-02-26 02:13:00,-999.9,-99.9,29.75,North,32767,-999.0,0.0,255,-99.99,,,0.00,Wunderground v.1.15,2013-02-26 08:13:00,
2013-02-26 02:15:00,-999.9,-99.9,29.75,North,32767,-999.0,0.0,255,-99.99,,,0.00,Wunderground v.1.15,2013-02-26 08:15:00,
2013-02-26 02:19:00,-999.9,-99.9,29.75,North,32767,-999.0,0.0,255,-99.99,,,0.00,Wunderground v.1.15,2013-02-26 08:19:00,
2013-02-26 02:23:00,-999.9,-99.9,29.73,North,32767,-999.0,0.0,255,-99.99,,,0.00,Wunderground v.1.15,2013-02-26 08:23:00,
2013-02-26 02:25:00,-999.9,-99.9,29.73,North,32767,-999.0,0.0,255,-99.99,,,0.00,Wunderground v.1.15,2013-02-26 08:25:00,
2013-02-26 02:29:00,-999.9,-99.9,29.73,North,32767,-999.0,0.0,255,-99.99,,,0.00,Wunderground v.1.15,2013-02-26 08:29:00,
2013-02-26 02:35:00,-999.9,-99.9,29.73,North,32767,-999.0,0.0,255,-99.99,,,0.00,Wunderground v.1.15,2013-02-26 08:35:00,
2013-02-26 02:37:00,-999.9,-99.9,29.73,North,32767,-999.0,0.0,255,-99.99,,,0.00,Wunderground v.1.15,2013-02-26 08:37:00,
2013-02-26 02:43:00,-999.9,-99.9,29.72,North,32767,-999.0,0.0,255,-99.99,,,0.00,Wunderground v.1.15,2013-02-26 08:43:00,
2013-02-26 02:45:00,-999.9,-99.9,29.72,North,32767,-999.0,0.0,255,-99.99,,,0.00,Wunderground v.1.15,2013-02-26 08:45:00,
2013-02-26 02:47:00,-999.9,-99.9,29.72,North,32767,-999.0,0.0,255,-99.99,,,0.00,Wunderground v.1.15,2013-02-26 08:47:00,
2013-02-26 02:51:00,-999.9,-99.9,29.72,NNE,16,7.0,7.0,255,-99.99,,,0.00,Wunderground v.1.15,2013-02-26 08:51:00,
2013-02-26 02:53:00,-999.9,-99.9,29.69,NNE,16,7.0,7.0,255,-99.99,,,0.00,Wunderground v.1.15,2013-02-26 08:53:00,
2013-02-26 02:55:00,-999.9,-99.9,29.69,NNE,16,7.0,7.0,255,-99.99,,,0.00,Wunderground v.1.15,2013-02-26 08:55:00,
2013-02-26 02:57:00,-999.9,-99.9,29.69,NNE,16,7.0,7.0,255,-99.99,,,0.00,Wunderground v.1.15,2013-02-26 08:57:00,
2013-02-26 03:01:00,-999.9,-99.9,29.69,NNE,16,7.0,7.0,255,-99.99,,,0.00,Wunderground v.1.15,2013-02-26 09:01:00,
2013-02-26 03:03:00,-999.9,-99.9,29.69,North,32767,-999.0,7.0,255,-99.99,,,0.00,Wunderground v.1.15,2013-02-26 09:03:00,
2013-02-26 03:05:00,-999.9,-99.9,29.69,North,32767,-999.0,7.0,255,-99.99,,,0.00,Wunderground v.1.15,2013-02-26 09:05:00,
2013-02-26 03:09:00,-999.9,-99.9,29.69,North,32767,-999.0,7.0,255,-99.99,,,0.00,Wunderground v.1.15,2013-02-26 09:09:00,
2013-02-26 03:13:00,-999.9,-99.9,29.69,North,32767,-999.0,0.0,255,-99.99,,,0.00,Wunderground v.1.15,2013-02-26 09:13:00,
2013-02-26 03:17:00,-999.9,-99.9,29.69,North,32767,-999.0,0.0,255,-99.99,,,0.00,Wunderground v.1.15,2013-02-26 09:17:00,
2013-02-26 03:23:00,-999.9,-99.9,29.68,North,32767,-999.0,0.0,255,-99.99,,,0.00,Wunderground v.1.15,2013-02-26 09:23:00,
2013-02-26 03:25:00,-999.9,-99.9,29.68,North,32767,-999.0,0.0,255,-99.99,,,0.00,Wunderground v.1.15,2013-02-26 09:25:00,
2013-02-26 03:27:00,-999.9,-99.9,29.68,North,32767,-999.0,0.0,255,-99.99,,,0.00,Wunderground v.1.15,2013-02-26 09:27:00,
2013-02-26 03:31:00,-999.9,-99.9,29.68,North,32767,-999.0,0.0,255,-99.99,,,0.00,Wunderground v.1.15,2013-02-26 09:31:00,
2013-02-26 03:33:00,-999.9,-99.9,29.68,North,32767,-999.0,0.0,255,-99.99,,,0.00,Wunderground v.1.15,2013-02-26 09:33:00,
2013-02-26 03:37:00,-999.9,-99.9,29.68,NE,35,8.0,8.0,255,-99.99,,,0.00,Wunderground v.1.15,2013-02-26 09:37:00,
2013-02-26 03:41:00,-999.9,-99.9,29.64,NE,35,8.0,8.0,255,-99.99,,,0.00,Wunderground v.1.15,2013-02-26 09:41:00,
2013-02-26 03:43:00,-999.9,-99.9,29.64,NE,35,8.0,8.0,255,-99.99,,,0.00,Wunderground v.1.15,2013-02-26 09:43:00,
2013-02-26 03:47:00,-999.9,-99.9,29.64,North,32767,-999.0,8.0,255,-99.99,,,0.00,Wunderground v.1.15,2013-02-26 09:47:00,
2013-02-26 03:49:00,-999.9,-99.9,29.64,North,32767,-999.0,8.0,255,-99.99,,,0.00,Wunderground v.1.15,2013-02-26 09:49:00,
2013-02-26 03:51:00,-999.9,-99.9,29.64,North,32767,-999.0,0.0,255,-99.99,,,0.00,Wunderground v.1.15,2013-02-26 09:51:00,
2013-02-26 03:55:00,-999.9,-99.9,29.63,North,32767,-999.0,0.0,255,-99.99,,,0.00,Wunderground v.1.15,2013-02-26 09:55:00,
2013-02-26 04:01:00,-999.9,-99.9,29.63,North,32767,-999.0,0.0,255,-99.99,,,0.00,Wunderground v.1.15,2013-02-26 10:01:00,
2013-02-26 04:03:00,-999.9,-99.9,29.63,North,32767,-999.0,0.0,255,-99.99,,,0.00,Wunderground v.1.15,2013-02-26 10:03:00,
2013-02-26 04:05:00,-999.9,-99.9,29.63,North,32767,-999.0,0.0,255,-99.99,,,0.00,Wunderground v.1.15,2013-02-26 10:05:00,
2013-02-26 04:07:00,-999.9,-99.9,29.63,North,32767,-999.0,0.0,255,-99.99,,,0.00,Wunderground v.1.15,2013-02-26 10:07:00,
2013-02-26 04:11:00,-999.9,-99.9,29.60,NE,40,5.0,5.0,255,-99.99,,,0.00,Wunderground v.1.15,2013-02-26 10:11:00,
2013-02-26 04:13:00,-999.9,-99.9,29.60,NE,40,5.0,5.0,255,-99.99,,,0.00,Wunderground v.1.15,2013-02-26 10:13:00,
2013-02-26 04:19:00,-999.9,-99.9,29.60,NE,40,5.0,5.0,255,-99.99,,,0.00,Wunderground v.1.15,2013-02-26 10:19:00,
2013-02-26 04:21:00,-999.9,-99.9,29.60,North,32767,-999.0,0.0,255,-99.99,,,0.00,Wunderground v.1.15,2013-02-26 10:21:00,
2013-02-26 04:25:00,-999.9,-99.9,29.60,North,32767,-999.0,0.0,255,-99.99,,,0.00,Wunderground v.1.15,2013-02-26 10:25:00,
2013-02-26 04:27:00,-999.9,-99.9,29.60,North,32767,-999.0,0.0,255,-99.99,,,0.00,Wunderground v.1.15,2013-02-26 10:27:00,
2013-02-26 04:33:00,-999.9,-99.9,29.60,North,32767,-999.0,0.0,255,-99.99,,,0.00,Wunderground v.1.15,2013-02-26 10:33:00,
2013-02-26 04:35:00,-999.9,-99.9,29.60,North,32767,-999.0,0.0,255,-99.99,,,0.00,Wunderground v.1.15,2013-02-26 10:35:00,
2013-02-26 04:37:00,-999.9,-99.9,29.60,North,32767,-999.0,0.0,255,-99.99,,,0.00,Wunderground v.1.15,2013-02-26 10:37:00,
2013-02-26 04:39:00,-999.9,-99.9,29.60,North,32767,-999.0,0.0,255,-99.99,,,0.00,Wunderground v.1.15,2013-02-26 10:39:00,
2013-02-26 04:43:00,-999.9,-99.9,29.60,North,32767,-999.0,0.0,255,-99.99,,,0.00,Wunderground v.1.15,2013-02-26 10:43:00,
2013-02-26 04:45:00,-999.9,-99.9,29.60,North,32767,-999.0,0.0,255,-99.99,,,0.00,Wunderground v.1.15,2013-02-26 10:45:00,
2013-02-26 04:49:00,-999.9,-99.9,29.60,North,32767,-999.0,0.0,255,-99.99,,,0.00,Wunderground v.1.15,2013-02-26 10:49:00,
2013-02-26 04:51:00,-999.9,-99.9,29.60,North,32767,-999.0,0.0,255,-99.99,,,0.00,Wunderground v.1.15,2013-02-26 10:51:00,
2013-02-26 04:53:00,-999.9,-99.9,29.59,NE,38,7.0,7.0,255,-99.99,,,0.00,Wunderground v.1.15,2013-02-26 10:53:00,
2013-02-26 04:55:00,-999.9,-99.9,29.59,NE,38,7.0,7.0,255,-99.99,,,0.00,Wunderground v.1.15,2013-02-26 10:55:00,
2013-02-26 04:59:00,-999.9,-99.9,29.59,NNE,31,14.0,14.0,255,-99.99,,,0.00,Wunderground v.1.15,2013-02-26 10:59:00,
2013-02-26 05:01:00,-999.9,-99.9,29.59,NNE,31,14.0,14.0,255,-99.99,,,0.00,Wunderground v.1.15,2013-02-26 11:01:00,
2013-02-26 05:03:00,-999.9,-99.9,29.59,NE,45,7.0,14.0,255,-99.99,,,0.00,Wunderground v.1.15,2013-02-26 11:03:00,
2013-02-26 05:05:00,-999.9,-99.9,29.59,NE,45,7.0,14.0,255,-99.99,,,0.00,Wunderground v.1.15,2013-02-26 11:05:00,
2013-02-26 05:07:00,-999.9,-99.9,29.59,NE,45,7.0,14.0,255,-99.99,,,0.00,Wunderground v.1.15,2013-02-26 11:07:00,
2013-02-26 05:11:00,-999.9,-99.9,29.58,NE,45,7.0,7.0,255,-99.99,,,0.00,Wunderground v.1.15,2013-02-26 11:11:00,
2013-02-26 05:13:00,-999.9,-99.9,29.58,NE,45,7.0,7.0,255,-99.99,,,0.00,Wunderground v.1.15,2013-02-26 11:13:00,
2013-02-26 05:15:00,-999.9,-99.9,29.58,North,32767,-999.0,7.0,255,-99.99,,,0.00,Wunderground v.1.15,2013-02-26 11:15:00,
2013-02-26 05:17:00,-999.9,-99.9,29.58,North,32767,-999.0,7.0,255,-99.99,,,0.00,Wunderground v.1.15,2013-02-26 11:17:00,
2013-02-26 05:21:00,-999.9,-99.9,29.58,North,32767,-999.0,0.0,255,-99.99,,,0.00,Wunderground v.1.15,2013-02-26 11:21:00,
2013-02-26 05:25:00,-999.9,-99.9,29.57,North,32767,-999.0,0.0,255,-99.99,,,0.00,Wunderground v.1.15,2013-02-26 11:25:00,
2013-02-26 05:27:00,-999.9,-99.9,29.57,North,32767,-999.0,0.0,255,-99.99,,,0.00,Wunderground v.1.15,2013-02-26 11:27:00,
2013-02-26 05:29:00,-999.9,-99.9,29.57,North,32767,-999.0,0.0,255,-99.99,,,0.00,Wunderground v.1.15,2013-02-26 11:29:00,
2013-02-26 05:31:00,-999.9,-99.9,29.57,North,32767,-999.0,0.0,255,-99.99,,,0.00,Wunderground v.1.15,2013-02-26 11:31:00,
2013-02-26 05:33:00,-999.9,-99.9,29.57,North,32767,-999.0,0.0,255,-99.99,,,0.00,Wunderground v.1.15,2013-02-26 11:33:00,
2013-02-26 05:35:00,-999.9,-99.9,29.57,North,32767,-999.0,0.0,255,-99.99,,,0.00,Wunderground v.1.15,2013-02-26 11:35:00,
2013-02-26 05:37:00,-999.9,-99.9,29.57,North,32767,-999.0,0.0,255,-99.99,,,0.00,Wunderground v.1.15,2013-02-26 11:37:00,
2013-02-26 05:43:00,-999.9,-99.9,29.57,North,32767,-999.0,7.0,255,-99.99,,,0.00,Wunderground v.1.15,2013-02-26 11:43:00,
2013-02-26 05:47:00,-999.9,-99.9,29.57,North,32767,-999.0,7.0,255,-99.99,,,0.00,Wunderground v.1.15,2013-02-26 11:47:00,
2013-02-26 05:49:00,-999.9,-99.9,29.57,North,32767,-999.0,7.0,255,-99.99,,,0.00,Wunderground v.1.15,2013-02-26 11:49:00,
2013-02-26 05:51:00,-999.9,-99.9,29.57,North,32767,-999.0,7.0,255,-99.99,,,0.00,Wunderground v.1.15,2013-02-26 11:51:00,
2013-02-26 05:53:00,-999.9,-99.9,29.57,North,32767,-999.0,7.0,255,-99.99,,,0.00,Wunderground v.1.15,2013-02-26 11:53:00,
2013-02-26 05:57:00,-999.9,-99.9,29.57,North,32767,-999.0,7.0,255,-99.99,,,0.00,Wunderground v.1.15,2013-02-26 11:57:00,
2013-02-26 05:59:00,-999.9,-99.9,29.57,North,32767,-999.0,7.0,255,-99.99,,,0.00,Wunderground v.1.15,2013-02-26 11:59:00,
2013-02-26 06:01:00,-999.9,-99.9,29.57,North,32767,-999.0,7.0,255,-99.99,,,0.00,Wunderground v.1.15,2013-02-26 12:01:00,
2013-02-26 06:05:00,-999.9,-99.9,29.57,North,32767,-999.0,7.0,255,-99.99,,,0.00,Wunderground v.1.15,2013-02-26 12:05:00,
2013-02-26 06:11:00,-999.9,-99.9,29.58,North,32767,-999.0,0.0,255,-99.99,,,0.00,Wunderground v.1.15,2013-02-26 12:11:00,
2013-02-26 06:13:00,-999.9,-99.9,29.58,North,32767,-999.0,0.0,255,-99.99,,,0.00,Wunderground v.1.15,2013-02-26 12:13:00,
2013-02-26 06:17:00,-999.9,-99.9,29.58,North,32767,-999.0,0.0,255,-99.99,,,0.00,Wunderground v.1.15,2013-02-26 12:17:00,
2013-02-26 06:19:00,-999.9,-99.9,29.58,North,32767,-999.0,0.0,255,-99.99,,,0.00,Wunderground v.1.15,2013-02-26 12:19:00,
2013-02-26 06:23:00,-999.9,-99.9,29.57,North,32767,-999.0,0.0,255,-99.99,,,0.00,Wunderground v.1.15,2013-02-26 12:23:00,
2013-02-26 06:25:00,-999.9,-99.9,29.57,North,32767,-999.0,0.0,255,-99.99,,,0.00,Wunderground v.1.15,2013-02-26 12:25:00,
2013-02-26 06:29:00,-999.9,-99.9,29.57,North,32767,-999.0,0.0,255,-99.99,,,0.00,Wunderground v.1.15,2013-02-26 12:29:00,
2013-02-26 06:33:00,-999.9,-99.9,29.57,North,32767,-999.0,0.0,255,-99.99,,,0.00,Wunderground v.1.15,2013-02-26 12:33:00,
2013-02-26 06:35:00,-999.9,-99.9,29.57,North,32767,-999.0,0.0,255,-99.99,,,0.00,Wunderground v.1.15,2013-02-26 12:35:00,
2013-02-26 06:39:00,-999.9,-99.9,29.57,North,32767,-999.0,0.0,255,-99.99,,,0.00,Wunderground v.1.15,2013-02-26 12:39:00,
2013-02-26 06:41:00,-999.9,-99.9,29.57,North,32767,-999.0,0.0,255,-99.99,,,0.00,Wunderground v.1.15,2013-02-26 12:41:00,
2013-02-26 06:45:00,-999.9,-99.9,29.57,North,32767,-999.0,0.0,255,-99.99,,,0.00,Wunderground v.1.15,2013-02-26 12:45:00,
2013-02-26 06:47:00,-999.9,-99.9,29.57,North,32767,-999.0,0.0,255,-99.99,,,0.00,Wunderground v.1.15,2013-02-26 12:47:00,
2013-02-26 06:49:00,-999.9,-99.9,29.57,North,32767,-999.0,0.0,255,-99.99,,,0.00,Wunderground v.1.15,2013-02-26 12:49:00,
2013-02-26 06:55:00,-999.9,-99.9,29.57,ENE,62,5.0,5.0,255,-99.99,,,0.00,Wunderground v.1.15,2013-02-26 12:55:00,
2013-02-26 07:01:00,-999.9,-99.9,29.57,ENE,62,5.0,5.0,255,-99.99,,,0.00,Wunderground v.1.15,2013-02-26 13:01:00,
2013-02-26 07:03:00,-999.9,-99.9,29.57,ENE,62,5.0,5.0,255,-99.99,,,0.00,Wunderground v.1.15,2013-02-26 13:03:00,
2013-02-26 07:07:00,-999.9,-99.9,29.57,North,32767,-999.0,5.0,255,-99.99,,,0.00,Wunderground v.1.15,2013-02-26 13:07:00,
2013-02-26 07:09:00,-999.9,-99.9,29.56,North,32767,-999.0,5.0,255,-99.99,,,0.00,Wunderground v.1.15,2013-02-26 13:09:00,
2013-02-26 07:11:00,-999.9,-99.9,29.56,North,32767,-999.0,0.0,255,-99.99,,,0.00,Wunderground v.1.15,2013-02-26 13:11:00,
2013-02-26 07:15:00,-999.9,-99.9,29.56,North,32767,-999.0,0.0,255,-99.99,,,0.00,Wunderground v.1.15,2013-02-26 13:15:00,
2013-02-26 07:17:00,-999.9,-99.9,29.56,North,32767,-999.0,0.0,255,-99.99,,,0.00,Wunderground v.1.15,2013-02-26 13:17:00,
2013-02-26 07:19:00,-999.9,-99.9,29.56,North,32767,-999.0,0.0,255,-99.99,,,0.00,Wunderground v.1.15,2013-02-26 13:19:00,
2013-02-26 07:23:00,-999.9,-99.9,29.56,North,32767,-999.0,0.0,255,-99.99,,,0.00,Wunderground v.1.15,2013-02-26 13:23:00,
2013-02-26 07:29:00,-999.9,-99.9,29.56,North,32767,-999.0,0.0,255,-99.99,,,0.00,Wunderground v.1.15,2013-02-26 13:29:00,
2013-02-26 07:35:00,-999.9,-99.9,29.56,North,32767,-999.0,0.0,255,-99.99,,,0.00,Wunderground v.1.15,2013-02-26 13:35:00,
2013-02-26 07:37:00,-999.9,-99.9,29.56,North,32767,-999.0,0.0,255,-99.99,,,0.00,Wunderground v.1.15,2013-02-26 13:37:00,
2013-02-26 07:41:00,-999.9,-99.9,29.56,ENE,59,6.0,6.0,255,-99.99,,,0.00,Wunderground v.1.15,2013-02-26 13:41:00,
2013-02-26 07:43:00,-999.9,-99.9,29.56,ENE,59,6.0,6.0,255,-99.99,,,0.00,Wunderground v.1.15,2013-02-26 13:43:00,
2013-02-26 07:45:00,-999.9,-99.9,29.56,ENE,59,6.0,6.0,255,-99.99,,,0.00,Wunderground v.1.15,2013-02-26 13:45:00,
2013-02-26 07:51:00,-999.9,-99.9,29.56,North,32767,-999.0,0.0,255,-99.99,,,0.00,Wunderground v.1.15,2013-02-26 13:51:00,
2013-02-26 07:53:00,-999.9,-99.9,29.55,North,32767,-999.0,0.0,255,-99.99,,,0.00,Wunderground v.1.15,2013-02-26 13:53:00,
2013-02-26 07:57:00,-999.9,-99.9,29.55,North,32767,-999.0,0.0,255,-99.99,,,0.00,Wunderground v.1.15,2013-02-26 13:57:00,
2013-02-26 07:59:00,-999.9,-99.9,29.55,East,95,3.0,3.0,255,-99.99,,,0.00,Wunderground v.1.15,2013-02-26 13:59:00,
2013-02-26 08:03:00,-999.9,-99.9,29.55,NE,37,6.0,6.0,255,-99.99,,,0.00,Wunderground v.1.15,2013-02-26 14:03:00,
2013-02-26 08:05:00,-999.9,-99.9,29.55,NNE,24,13.0,13.0,255,-99.99,,,0.00,Wunderground v.1.15,2013-02-26 14:05:00,
2013-02-26 08:09:00,-999.9,-99.9,29.53,North,1,11.0,13.0,255,-99.99,,,0.00,Wunderground v.1.15,2013-02-26 14:09:00,
2013-02-26 08:11:00,-999.9,-99.9,29.53,North,1,11.0,11.0,255,-99.99,,,0.00,Wunderground v.1.15,2013-02-26 14:11:00,
2013-02-26 08:17:00,-999.9,-99.9,29.53,North,1,11.0,11.0,255,-99.99,,,0.00,Wunderground v.1.15,2013-02-26 14:17:00,
2013-02-26 08:19:00,-999.9,-99.9,29.53,North,32767,-999.0,11.0,255,-99.99,,,0.00,Wunderground v.1.15,2013-02-26 14:19:00,
2013-02-26 08:21:00,-999.9,-99.9,29.53,North,32767,-999.0,0.0,255,-99.99,,,0.00,Wunderground v.1.15,2013-02-26 14:21:00,
2013-02-26 08:23:00,-999.9,-99.9,29.52,North,32767,-999.0,0.0,255,-99.99,,,0.00,Wunderground v.1.15,2013-02-26 14:23:00,
2013-02-26 08:27:00,-999.9,-99.9,29.52,North,32767,-999.0,0.0,255,-99.99,,,0.00,Wunderground v.1.15,2013-02-26 14:27:00,
2013-02-26 08:29:00,-999.9,-99.9,29.52,North,32767,-999.0,0.0,255,-99.99,,,0.00,Wunderground v.1.15,2013-02-26 14:29:00,
2013-02-26 08:31:00,-999.9,-99.9,29.52,North,32767,-999.0,0.0,255,-99.99,,,0.00,Wunderground v.1.15,2013-02-26 14:31:00,
2013-02-26 08:33:00,-999.9,-99.9,29.52,North,32767,-999.0,0.0,255,-99.99,,,0.00,Wunderground v.1.15,2013-02-26 14:33:00,
2013-02-26 08:35:00,-999.9,-99.9,29.52,North,32767,-999.0,0.0,255,-99.99,,,0.00,Wunderground v.1.15,2013-02-26 14:35:00,
2013-02-26 08:37:00,-999.9,-99.9,29.52,NNE,32,8.0,8.0,255,-99.99,,,0.00,Wunderground v.1.15,2013-02-26 14:37:00,
2013-02-26 08:39:00,-999.9,-99.9,29.52,NE,37,11.0,11.0,255,-99.99,,,0.00,Wunderground v.1.15,2013-02-26 14:39:00,
2013-02-26 08:41:00,-999.9,-99.9,29.52,NE,37,11.0,13.0,255,-99.99,,,0.00,Wunderground v.1.15,2013-02-26 14:41:00,
2013-02-26 08:47:00,-999.9,-99.9,29.52,NE,38,5.0,13.0,255,-99.99,,,0.00,Wunderground v.1.15,2013-02-26 14:47:00,
2013-02-26 08:49:00,-999.9,-99.9,29.52,NE,38,5.0,13.0,255,-99.99,,,0.00,Wunderground v.1.15,2013-02-26 14:49:00,
2013-02-26 08:51:00,-999.9,-99.9,29.52,NE,37,10.0,13.0,255,-99.99,,,0.00,Wunderground v.1.15,2013-02-26 14:51:00,
2013-02-26 08:53:00,-999.9,-99.9,29.53,NE,37,10.0,13.0,255,-99.99,,,0.00,Wunderground v.1.15,2013-02-26 14:53:00,
2013-02-26 08:57:00,-999.9,-99.9,29.53,NE,37,10.0,13.0,255,-99.99,,,0.00,Wunderground v.1.15,2013-02-26 14:57:00,
2013-02-26 08:59:00,-999.9,-99.9,29.53,NE,37,10.0,13.0,255,-99.99,,,0.00,Wunderground v.1.15,2013-02-26 14:59:00,
2013-02-26 09:03:00,-999.9,-99.9,29.53,North,32767,-999.0,13.0,255,-99.99,,,0.00,Wunderground v.1.15,2013-02-26 15:03:00,
2013-02-26 09:09:00,-999.9,-99.9,29.52,North,32767,-999.0,13.0,255,-99.99,,,0.00,Wunderground v.1.15,2013-02-26 15:09:00,
2013-02-26 09:11:00,-999.9,-99.9,29.52,North,32767,-999.0,0.0,255,-99.99,,,0.00,Wunderground v.1.15,2013-02-26 15:11:00,
2013-02-26 09:13:00,-999.9,-99.9,29.52,North,32767,-999.0,0.0,255,-99.99,,,0.00,Wunderground v.1.15,2013-02-26 15:13:00,
2013-02-26 09:17:00,-999.9,-99.9,29.52,NNE,18,7.0,12.0,255,-99.99,,,0.00,Wunderground v.1.15,2013-02-26 15:17:00,
2013-02-26 09:19:00,-999.9,-99.9,29.52,NE,41,2.0,12.0,255,-99.99,,,0.00,Wunderground v.1.15,2013-02-26 15:19:00,
2013-02-26 09:23:00,-999.9,-99.9,29.53,NE,41,2.0,2.0,255,-99.99,,,0.00,Wunderground v.1.15,2013-02-26 15:23:00,
2013-02-26 09:25:00,-999.9,-99.9,29.53,NE,41,2.0,2.0,255,-99.99,,,0.00,Wunderground v.1.15,2013-02-26 15:25:00,
2013-02-26 09:29:00,-999.9,-99.9,29.53,North,32767,-999.0,2.0,255,-99.99,,,0.00,Wunderground v.1.15,2013-02-26 15:29:00,
2013-02-26 09:33:00,-999.9,-99.9,29.53,NE,35,7.0,7.0,255,-99.99,,,0.00,Wunderground v.1.15,2013-02-26 15:33:00,
2013-02-26 09:35:00,-999.9,-99.9,29.53,NE,35,7.0,7.0,255,-99.99,,,0.00,Wunderground v.1.15,2013-02-26 15:35:00,
2013-02-26 09:37:00,-999.9,-99.9,29.53,NE,40,12.0,12.0,255,-99.99,,,0.00,Wunderground v.1.15,2013-02-26 15:37:00,
2013-02-26 09:41:00,-999.9,-99.9,29.52,NE,40,12.0,12.0,255,-99.99,,,0.00,Wunderground v.1.15,2013-02-26 15:41:00,
2013-02-26 09:45:00,-999.9,-99.9,29.52,NE,38,9.0,12.0,255,-99.99,,,0.00,Wunderground v.1.15,2013-02-26 15:45:00,
2013-02-26 09:47:00,-999.9,-99.9,29.52,NE,34,11.0,12.0,255,-99.99,,,0.00,Wunderground v.1.15,2013-02-26 15:47:00,
2013-02-26 09:49:00,-999.9,-99.9,29.52,NE,34,11.0,12.0,255,-99.99,,,0.00,Wunderground v.1.15,2013-02-26 15:49:00,
2013-02-26 09:53:00,-999.9,-99.9,29.51,NE,48,6.0,11.0,255,-99.99,,,0.00,Wunderground v.1.15,2013-02-26 15:53:00,
2013-02-26 09:55:00,-999.9,-99.9,29.51,ENE,58,8.0,11.0,255,-99.99,,,0.00,Wunderground v.1.15,2013-02-26 15:55:00,
2013-02-26 09:57:00,-999.9,-99.9,29.51,ENE,58,5.0,11.0,255,-99.99,,,0.00,Wunderground v.1.15,2013-02-26 15:57:00,
2013-02-26 10:01:00,-999.9,-99.9,29.51,ENE,58,5.0,5.0,255,-99.99,,,0.00,Wunderground v.1.15,2013-02-26 16:01:00,
2013-02-26 10:03:00,-999.9,-99.9,29.51,ENE,58,5.0,5.0,255,-99.99,,,0.00,Wunderground v.1.15,2013-02-26 16:03:00,
2013-02-26 10:09:00,-999.9,-99.9,29.49,NNE,21,14.0,14.0,255,-99.99,,,0.00,Wunderground v.1.15,2013-02-26 16:09:00,
2013-02-26 10:11:00,-999.9,-99.9,29.49,NNE,21,13.0,13.0,255,-99.99,,,0.00,Wunderground v.1.15,2013-02-26 16:11:00,
2013-02-26 10:13:00,-999.9,-99.9,29.49,NNE,21,13.0,13.0,255,-99.99,,,0.00,Wunderground v.1.15,2013-02-26 16:13:00,
2013-02-26 10:17:00,-999.9,-99.9,29.49,NNE,21,13.0,13.0,255,-99.99,,,0.00,Wunderground v.1.15,2013-02-26 16:17:00,
2013-02-26 10:21:00,-999.9,-99.9,29.49,NNE,32,10.0,10.0,255,-99.99,,,0.00,Wunderground v.1.15,2013-02-26 16:21:00,
2013-02-26 10:25:00,-999.9,-99.9,29.49,NNE,32,10.0,10.0,255,-99.99,,,0.00,Wunderground v.1.15,2013-02-26 16:25:00,
2013-02-26 10:27:00,-999.9,-99.9,29.49,NE,42,5.0,10.0,255,-99.99,,,0.00,Wunderground v.1.15,2013-02-26 16:27:00,
2013-02-26 10:31:00,-999.9,-99.9,29.49,NNE,18,10.0,10.0,255,-99.99,,,0.00,Wunderground v.1.15,2013-02-26 16:31:00,
2013-02-26 10:33:00,-999.9,-99.9,29.49,NNE,24,7.0,10.0,255,-99.99,,,0.00,Wunderground v.1.15,2013-02-26 16:33:00,
2013-02-26 10:35:00,-999.9,-99.9,29.49,NNE,24,7.0,10.0,255,-99.99,,,0.00,Wunderground v.1.15,2013-02-26 16:35:00,
2013-02-26 10:37:00,-999.9,-99.9,29.49,NNE,24,7.0,10.0,255,-99.99,,,0.00,Wunderground v.1.15,2013-02-26 16:37:00,
2013-02-26 10:43:00,-999.9,-99.9,29.49,NNE,28,7.0,7.0,255,-99.99,,,0.00,Wunderground v.1.15,2013-02-26 16:43:00,
2013-02-26 10:59:00,-999.9,-99.9,29.49,NE,49,6.0,6.0,255,-99.99,,,0.00,Wunderground v.1.15,2013-02-26 16:59:00,
2013-02-26 11:01:00,-999.9,-99.9,29.49,NNE,25,6.0,6.0,255,-99.99,,,0.00,Wunderground v.1.15,2013-02-26 17:01:00,
2013-02-26 11:03:00,-999.9,-99.9,29.49,NNE,32,10.0,10.0,255,-99.99,,,0.00,Wunderground v.1.15,2013-02-26 17:03:00,
2013-02-26 11:07:00,-999.9,-99.9,29.49,NE,54,7.0,10.0,255,-99.99,,,0.00,Wunderground v.1.15,2013-02-26 17:07:00,
2013-02-26 11:09:00,-999.9,-99.9,29.49,NNE,32,8.0,10.0,255,-99.99,,,0.00,Wunderground v.1.15,2013-02-26 17:09:00,
2013-02-26 11:11:00,-999.9,-99.9,29.49,NNE,32,8.0,8.0,255,-99.99,,,0.00,Wunderground v.1.15,2013-02-26 17:11:00,
2013-02-26 11:15:00,-999.9,-99.9,29.49,NE,35,8.0,8.0,255,-99.99,,,0.00,Wunderground v.1.15,2013-02-26 17:15:00,
2013-02-26 11:17:00,-999.9,-99.9,29.49,NNE,30,11.0,11.0,255,-99.99,,,0.00,Wunderground v.1.15,2013-02-26 17:17:00,
2013-02-26 11:23:00,-999.9,-99.9,29.49,NNE,23,11.0,11.0,255,-99.99,,,0.00,Wunderground v.1.15,2013-02-26 17:23:00,
2013-02-26 11:25:00,-999.9,-99.9,29.49,NE,47,7.0,11.0,255,-99.99,,,0.00,Wunderground v.1.15,2013-02-26 17:25:00,
2013-02-26 11:29:00,-999.9,-99.9,29.49,NE,35,7.0,11.0,255,-99.99,,,0.00,Wunderground v.1.15,2013-02-26 17:29:00,
2013-02-26 11:31:00,-999.9,-99.9,29.49,ENE,64,7.0,7.0,255,-99.99,,,0.00,Wunderground v.1.15,2013-02-26 17:31:00,
2013-02-26 11:33:00,-999.9,-99.9,29.49,NE,41,7.0,13.0,255,-99.99,,,0.00,Wunderground v.1.15,2013-02-26 17:33:00,
2013-02-26 11:37:00,-999.9,-99.9,29.49,NE,38,7.0,13.0,255,-99.99,,,0.00,Wunderground v.1.15,2013-02-26 17:37:00,
2013-02-26 11:39:00,-999.9,-99.9,29.49,ENE,61,7.0,13.0,255,-99.99,,,0.00,Wunderground v.1.15,2013-02-26 17:39:00,
2013-02-26 11:41:00,-999.9,-99.9,29.49,NE,37,7.0,7.0,255,-99.99,,,0.00,Wunderground v.1.15,2013-02-26 17:41:00,
2013-02-26 11:43:00,31.2,-99.9,29.49,NNE,25,6.0,7.0,255,-99.99,,,0.00,Wunderground v.1.15,2013-02-26 17:43:00,
2013-02-26 11:45:00,31.2,-99.9,29.49,NNE,24,6.0,7.0,255,-99.99,,,0.00,Wunderground v.1.15,2013-02-26 17:45:00,
2013-02-26 11:47:00,31.2,-99.9,29.49,NE,40,6.0,7.0,255,-99.99,,,0.00,Wunderground v.1.15,2013-02-26 17:47:00,
2013-02-26 11:49:00,31.2,-99.9,29.49,NE,38,5.0,7.0,255,-99.99,,,0.00,Wunderground v.1.15,2013-02-26 17:49:00,
2013-02-26 11:51:00,31.2,-99.9,29.54,NE,34,6.0,7.0,255,-99.99,,,0.00,Wunderground v.1.15,2013-02-26 17:51:00,
2013-02-26 11:53:00,31.2,-99.9,29.54,NE,34,7.0,7.0,255,-99.99,,,0.00,Wunderground v.1.15,2013-02-26 17:53:00,
2013-02-26 11:59:00,31.2,-99.9,29.54,North,0,5.0,7.0,255,-99.99,,,0.00,Wunderground v.1.15,2013-02-26 17:59:00,
2013-02-26 12:01:00,31.2,-99.9,29.54,NE,47,6.0,6.0,255,-99.99,,,0.00,Wunderground v.1.15,2013-02-26 18:01:00,
2013-02-26 12:03:00,31.2,-99.9,29.54,NNE,21,7.0,7.0,255,-99.99,,,0.00,Wunderground v.1.15,2013-02-26 18:03:00,
2013-02-26 12:05:00,31.2,-99.9,29.53,NNE,21,7.0,7.0,255,-99.99,,,0.00,Wunderground v.1.15,2013-02-26 18:05:00,
2013-02-26 12:11:00,31.2,-99.9,29.53,NNE,17,6.0,6.0,255,-99.99,,,0.00,Wunderground v.1.15,2013-02-26 18:11:00,
2013-02-26 12:15:00,-999.9,-99.9,29.53,NE,41,6.0,6.0,255,-99.99,,,0.00,Wunderground v.1.15,2013-02-26 18:15:00,
2013-02-26 12:17:00,-999.9,-99.9,29.53,NNE,24,6.0,6.0,255,-99.99,,,0.00,Wunderground v.1.15,2013-02-26 18:17:00,
2013-02-26 12:19:00,-999.9,-99.9,29.53,NNE,24,6.0,6.0,255,-99.99,,,0.00,Wunderground v.1.15,2013-02-26 18:19:00,
2013-02-26 12:21:00,-999.9,-99.9,29.49,NE,54,6.0,6.0,255,-99.99,,,0.00,Wunderground v.1.15,2013-02-26 18:21:00,
2013-02-26 12:23:00,-999.9,-99.9,29.49,NE,49,4.0,6.0,255,-99.99,,,0.00,Wunderground v.1.15,2013-02-26 18:23:00,
2013-02-26 12:27:00,-999.9,-99.9,29.49,NNE,30,4.0,6.0,255,-99.99,,,0.00,Wunderground v.1.15,2013-02-26 18:27:00,
2013-02-26 12:29:00,-999.9,-99.9,29.49,NNE,30,4.0,6.0,255,-99.99,,,0.00,Wunderground v.1.15,2013-02-26 18:29:00,
2013-02-26 12:33:00,-999.9,-99.9,29.49,NNE,30,3.0,6.0,255,-99.99,,,0.00,Wunderground v.1.15,2013-02-26 18:33:00,
2013-02-26 12:35:00,-999.9,-99.9,29.47,NNE,30,3.0,6.0,255,-99.99,,,0.00,Wunderground v.1.15,2013-02-26 18:35:00,
2013-02-26 12:37:00,-999.9,-99.9,29.47,NNE,30,3.0,6.0,255,-99.99,,,0.00,Wunderground v.1.15,2013-02-26 18:37:00,
2013-02-26 12:41:00,-999.9,-99.9,29.47,NNE,31,3.0,6.0,255,-99.99,,,0.00,Wunderground v.1.15,2013-02-26 18:41:00,
2013-02-26 12:43:00,-999.9,-99.9,29.47,NNE,32,7.0,7.0,255,-99.99,,,0.00,Wunderground v.1.15,2013-02-26 18:43:00,
2013-02-26 12:47:00,-999.9,-99.9,29.47,NE,38,4.0,7.0,255,-99.99,,,0.00,Wunderground v.1.15,2013-02-26 18:47:00,
2013-02-26 16:39:00,-999.9,-99.9,29.50,North,32767,-999.0,0.0,255,-99.99,,,0.06,Wunderground v.1.15,2013-02-26 22:39:00,
2013-02-26 16:41:00,-999.9,-99.9,29.50,North,32767,-999.0,0.0,255,-99.99,,,0.06,Wunderground v.1.15,2013-02-26 22:41:00,
2013-02-26 16:47:00,-999.9,-99.9,29.50,North,32767,-999.0,0.0,255,-99.99,,,0.06,Wunderground v.1.15,2013-02-26 22:47:00,
2013-02-26 16:49:00,-999.9,-99.9,29.50,North,32767,-999.0,0.0,255,-99.99,,,0.06,Wunderground v.1.15,2013-02-26 22:49:00,
2013-02-26 16:51:00,-999.9,-99.9,29.50,North,32767,-999.0,0.0,255,-99.99,,,0.06,Wunderground v.1.15,2013-02-26 22:51:00,
2013-02-26 16:53:00,-999.9,-99.9,29.50,North,32767,-999.0,0.0,255,-99.99,,,0.06,Wunderground v.1.15,2013-02-26 22:53:00,
2013-02-26 16:55:00,-999.9,-99.9,29.50,North,32767,-999.0,0.0,255,-99.99,,,0.06,Wunderground v.1.15,2013-02-26 22:55:00,
2013-02-26 16:57:00,-999.9,-99.9,29.50,North,32767,-999.0,0.0,255,-99.99,,,0.06,Wunderground v.1.15,2013-02-26 22:57:00,
2013-02-26 17:01:00,-999.9,-99.9,29.50,North,32767,-999.0,0.0,255,-99.99,,,0.06,Wunderground v.1.15,2013-02-26 23:01:00,
2013-02-26 17:05:00,-999.9,-99.9,29.51,NNE,32,0.0,0.0,255,-99.99,,,0.06,Wunderground v.1.15,2013-02-26 23:05:00,
2013-02-26 17:07:00,-999.9,-99.9,29.51,NNE,32,0.0,0.0,255,-99.99,,,0.06,Wunderground v.1.15,2013-02-26 23:07:00,
2013-02-26 17:13:00,-999.9,-99.9,29.51,NNE,32,0.0,0.0,255,-99.99,,,0.06,Wunderground v.1.15,2013-02-26 23:13:00,
2013-02-26 17:15:00,-999.9,-99.9,29.51,North,32767,-999.0,0.0,255,-99.99,,,0.06,Wunderground v.1.15,2013-02-26 23:15:00,
2013-02-26 17:17:00,-999.9,-99.9,29.51,North,32767,-999.0,0.0,255,-99.99,,,0.06,Wunderground v.1.15,2013-02-26 23:17:00,
2013-02-26 17:19:00,-999.9,-99.9,29.51,North,32767,-999.0,0.0,255,-99.99,,,0.06,Wunderground v.1.15,2013-02-26 23:19:00,
2013-02-26 17:23:00,-999.9,-99.9,29.51,North,32767,-999.0,0.0,255,-99.99,,,0.06,Wunderground v.1.15,2013-02-26 23:23:00,
2013-02-26 17:25:00,-999.9,-99.9,29.51,North,32767,-999.0,0.0,255,-99.99,,,0.06,Wunderground v.1.15,2013-02-26 23:25:00,
2013-02-26 17:27:00,-999.9,-99.9,29.51,North,32767,-999.0,0.0,255,-99.99,,,0.06,Wunderground v.1.15,2013-02-26 23:27:00,
2013-02-26 17:29:00,-999.9,-99.9,29.51,North,32767,-999.0,0.0,255,-99.99,,,0.06,Wunderground v.1.15,2013-02-26 23:29:00,
2013-02-26 17:31:00,-999.9,-99.9,29.51,North,32767,-999.0,0.0,255,-99.99,,,0.06,Wunderground v.1.15,2013-02-26 23:31:00,
2013-02-26 17:35:00,-999.9,-99.9,29.51,North,32767,-999.0,0.0,255,-99.99,,,0.06,Wunderground v.1.15,2013-02-26 23:35:00,
2013-02-26 17:37:00,-999.9,-99.9,29.52,North,32767,-999.0,0.0,255,-99.99,,,0.06,Wunderground v.1.15,2013-02-26 23:37:00,
2013-02-26 17:39:00,-999.9,-99.9,29.52,North,32767,-999.0,0.0,255,-99.99,,,0.06,Wunderground v.1.15,2013-02-26 23:39:00,
2013-02-26 17:41:00,-999.9,-99.9,29.52,North,32767,-999.0,0.0,255,-99.99,,,0.06,Wunderground v.1.15,2013-02-26 23:41:00,
2013-02-26 17:45:00,-999.9,-99.9,29.52,North,32767,-999.0,0.0,255,-99.99,,,0.06,Wunderground v.1.15,2013-02-26 23:45:00,
2013-02-26 17:47:00,-999.9,-99.9,29.52,North,32767,-999.0,0.0,255,-99.99,,,0.06,Wunderground v.1.15,2013-02-26 23:47:00,
2013-02-26 17:51:00,-999.9,-99.9,29.52,NNE,17,0.0,0.0,255,-99.99,,,0.06,Wunderground v.1.15,2013-02-26 23:51:00,
2013-02-26 17:53:00,-999.9,-99.9,29.52,NNE,17,0.0,0.0,255,-99.99,,,0.06,Wunderground v.1.15,2013-02-26 23:53:00,
2013-02-26 17:55:00,-999.9,-99.9,29.52,NNE,17,0.0,0.0,255,-99.99,,,0.06,Wunderground v.1.15,2013-02-26 23:55:00,
2013-02-26 17:57:00,-999.9,-99.9,29.52,NNE,17,0.0,0.0,255,-99.99,,,0.06,Wunderground v.1.15,2013-02-26 23:57:00,
2013-02-26 18:03:00,-999.9,-99.9,29.52,North,32767,-999.0,0.0,255,-99.99,,,0.06,Wunderground v.1.15,2013-02-27 00:03:00,
2013-02-26 18:05:00,-999.9,-99.9,29.52,North,32767,-999.0,0.0,255,-99.99,,,0.06,Wunderground v.1.15,2013-02-27 00:05:00,
2013-02-26 18:07:00,-999.9,-99.9,29.52,North,32767,-999.0,0.0,255,-99.99,,,0.06,Wunderground v.1.15,2013-02-27 00:07:00,
2013-02-26 18:09:00,-999.9,-99.9,29.52,North,32767,-999.0,0.0,255,-99.99,,,0.06,Wunderground v.1.15,2013-02-27 00:09:00,
2013-02-26 18:17:00,-999.9,-99.9,29.52,NE,34,0.0,0.0,255,-99.99,,,0.06,Wunderground v.1.15,2013-02-27 00:17:00,
2013-02-26 18:19:00,-999.9,-99.9,29.52,NNE,27,0.0,0.0,255,-99.99,,,0.06,Wunderground v.1.15,2013-02-27 00:19:00,
2013-02-26 18:23:00,-999.9,-99.9,29.52,NE,34,0.0,0.0,255,-99.99,,,0.06,Wunderground v.1.15,2013-02-27 00:23:00,
2013-02-26 18:25:00,-999.9,-99.9,29.52,NE,34,0.0,0.0,255,-99.99,,,0.06,Wunderground v.1.15,2013-02-27 00:25:00,
2013-02-26 18:27:00,-999.9,-99.9,29.52,NE,34,0.0,0.0,255,-99.99,,,0.06,Wunderground v.1.15,2013-02-27 00:27:00,
2013-02-26 18:31:00,-999.9,-99.9,29.52,NNE,17,0.0,0.0,255,-99.99,,,0.06,Wunderground v.1.15,2013-02-27 00:31:00,
2013-02-26 18:33:00,-999.9,-99.9,29.52,NNE,17,0.0,0.0,255,-99.99,,,0.06,Wunderground v.1.15,2013-02-27 00:33:00,
2013-02-26 18:39:00,-999.9,-99.9,29.53,NNE,14,0.0,0.0,255,-99.99,,,0.06,Wunderground v.1.15,2013-02-27 00:39:00,
2013-02-26 18:41:00,-999.9,-99.9,29.53,NNE,14,0.0,0.0,255,-99.99,,,0.06,Wunderground v.1.15,2013-02-27 00:41:00,
2013-02-26 18:45:00,-999.9,-99.9,29.53,NNE,30,0.0,0.0,255,-99.99,,,0.06,Wunderground v.1.15,2013-02-27 00:45:00,
2013-02-26 18:47:00,-999.9,-99.9,29.53,NNE,23,0.0,0.0,255,-99.99,,,0.06,Wunderground v.1.15,2013-02-27 00:47:00,
2013-02-26 18:53:00,-999.9,-99.9,29.53,NNE,13,0.0,0.0,255,-99.99,,,0.06,Wunderground v.1.15,2013-02-27 00:53:00,
2013-02-26 18:57:00,-999.9,-99.9,29.53,North,359,0.0,0.0,255,-99.99,,,0.06,Wunderground v.1.15,2013-02-27 00:57:00,
2013-02-26 18:59:00,-999.9,-99.9,29.53,North,359,0.0,0.0,255,-99.99,,,0.06,Wunderground v.1.15,2013-02-27 00:59:00,
2013-02-26 19:05:00,-999.9,-99.9,29.54,North,10,0.0,0.0,255,-99.99,,,0.06,Wunderground v.1.15,2013-02-27 01:05:00,
2013-02-26 19:07:00,-999.9,-99.9,29.54,North,0,0.0,0.0,255,-99.99,,,0.06,Wunderground v.1.15,2013-02-27 01:07:00,
2013-02-26 19:09:00,-999.9,-99.9,29.54,North,0,0.0,0.0,255,-99.99,,,0.06,Wunderground v.1.15,2013-02-27 01:09:00,
2013-02-26 19:11:00,-999.9,-99.9,29.54,North,0,0.0,0.0,255,-99.99,,,0.06,Wunderground v.1.15,2013-02-27 01:11:00,
2013-02-26 19:13:00,-999.9,-99.9,29.54,North,0,0.0,0.0,255,-99.99,,,0.06,Wunderground v.1.15,2013-02-27 01:13:00,
2013-02-26 19:15:00,-999.9,-99.9,29.54,North,0,0.0,0.0,255,-99.99,,,0.06,Wunderground v.1.15,2013-02-27 01:15:00,
2013-02-26 19:17:00,-999.9,-99.9,29.54,North,0,0.0,0.0,255,-99.99,,,0.06,Wunderground v.1.15,2013-02-27 01:17:00,
2013-02-26 19:21:00,-999.9,-99.9,29.54,North,32767,-999.0,0.0,255,-99.99,,,0.06,Wunderground v.1.15,2013-02-27 01:21:00,
2013-02-26 19:23:00,-999.9,-99.9,29.54,North,32767,-999.0,0.0,255,-99.99,,,0.06,Wunderground v.1.15,2013-02-27 01:23:00,
2013-02-26 19:27:00,-999.9,-99.9,29.54,North,32767,-999.0,0.0,255,-99.99,,,0.06,Wunderground v.1.15,2013-02-27 01:27:00,
2013-02-26 19:29:00,-999.9,-99.9,29.54,North,32767,-999.0,0.0,255,-99.99,,,0.06,Wunderground v.1.15,2013-02-27 01:29:00,